Aviation Digital Data Service (ADDS)

Output produced by METARs form (1728 UTC 19 December 2014)
found at http://aviationweather.gov/adds/metars/
 
KACK 191722Z 1918/2018 32012KT P6SM BKN025 
     FM192300 34008KT P6SM BKN025 
     FM200300 35008KT P6SM SCT250 
     FM201000 01008KT P6SM BKN025 
     FM201200 02007KT P6SM BKN020